Time;durP1;ratioP1;P1;durP2;ratioP2;P2;SDS_P1;SDS_P2;PMS_P1;PMS_P2;Temp;Humidity;BMP_temperature;BMP_pressure;BME280_temperature;BME280_humidity;BME280_pressure;Samples;Min_cycle;Max_cycle;Signal;HPM_P1;HPM_P2
2022/08/30 00:01:01;;;;;;;22.10;12.95;;;;;;;21.26;91.40;96801.06;5005434;28;20065;-71
2022/08/30 00:03:35;;;;;;;26.40;12.52;;;;;;;21.15;92.34;96792.13;5003624;28;20153;-71
2022/08/30 00:06:05;;;;;;;23.10;12.75;;;;;;;22.07;92.67;96934.84;5005057;28;20046;-71
2022/08/30 00:08:34;;;;;;;21.52;11.90;;;;;;;22.08;92.91;96939.25;5004735;28;20136;-72
2022/08/30 00:11:03;;;;;;;22.65;12.75;;;;;;;22.01;93.65;96959.22;5003541;28;20784;-72
2022/08/30 00:13:30;;;;;;;24.05;11.50;;;;;;;21.96;93.90;96940.03;5003434;28;20438;-72
2022/08/30 00:15:57;;;;;;;24.00;12.32;;;;;;;21.55;94.00;96877.94;5004848;28;20060;-71
2022/08/30 00:18:24;;;;;;;17.85;12.15;;;;;;;21.95;92.83;96957.41;5003180;28;20523;-73
2022/08/30 00:20:51;;;;;;;21.55;12.73;;;;;;;21.61;93.66;96895.88;5004675;28;20050;-73
2022/08/30 00:23:19;;;;;;;20.75;11.80;;;;;;;21.95;93.18;96944.09;5004786;28;20061;-72
2022/08/30 00:25:46;;;;;;;22.55;11.75;;;;;;;21.77;92.17;96909.16;5003349;28;20141;-73
2022/08/30 00:28:13;;;;;;;21.75;10.82;;;;;;;21.68;91.31;96892.88;5003518;28;20057;-72
2022/08/30 00:30:40;;;;;;;22.75;11.75;;;;;;;22.03;91.52;96930.56;5003360;28;20057;-72
2022/08/30 00:33:08;;;;;;;19.67;11.25;;;;;;;21.92;92.40;96933.69;5002928;28;20116;-71
2022/08/30 00:35:35;;;;;;;24.33;11.57;;;;;;;21.93;92.45;96929.63;5004544;28;20050;-70
2022/08/30 00:38:02;;;;;;;20.85;11.68;;;;;;;21.68;92.24;96917.44;5007103;28;20484;-72
2022/08/30 00:40:29;;;;;;;18.42;11.43;;;;;;;21.89;92.53;96933.81;5044379;28;20064;-70
2022/08/30 00:42:58;;;;;;;16.77;11.13;;;;;;;21.93;91.86;96929.63;5044003;28;20498;-72
2022/08/30 00:45:35;;;;;;;19.38;11.88;;;;;;;21.99;91.90;96938.31;5044569;28;20159;-71
2022/08/30 00:48:03;;;;;;;20.10;12.15;;;;;;;21.40;91.95;96840.13;5042676;28;20049;-71
2022/08/30 00:50:43;;;;;;;21.58;12.02;;;;;;;22.11;91.46;96938.34;5044274;28;20057;-71
2022/08/30 00:53:15;;;;;;;23.45;12.15;;;;;;;21.50;91.34;96844.66;5043930;28;20553;-72
2022/08/30 00:55:42;;;;;;;23.15;11.73;;;;;;;21.99;89.43;96902.44;5043958;28;20123;-71
2022/08/30 00:58:15;;;;;;;18.10;11.32;;;;;;;22.24;89.48;96929.94;5043731;28;20079;-72
2022/08/30 01:00:43;;;;;;;19.63;11.68;;;;;;;22.28;89.43;96928.56;5042885;28;20049;-71
2022/08/30 01:03:10;;;;;;;19.50;12.55;;;;;;;21.79;90.59;96873.66;5042974;28;20057;-70
2022/08/30 01:05:37;;;;;;;19.80;11.85;;;;;;;22.27;89.58;96932.63;5046598;28;20057;-72
2022/08/30 01:08:05;;;;;;;23.55;12.60;;;;;;;21.38;91.10;96879.25;5047866;28;20064;-72
2022/08/30 01:10:35;;;;;;;27.05;13.88;;;;;;;22.04;90.32;96930.09;5048015;28;20068;-72
2022/08/30 01:13:03;;;;;;;22.98;12.32;;;;;;;21.97;90.31;96930.31;5046491;28;20044;-72
2022/08/30 01:15:31;;;;;;;20.45;12.48;;;;;;;20.99;92.82;96826.00;5046299;28;20045;-71
2022/08/30 01:17:59;;;;;;;20.42;11.95;;;;;;;21.43;93.17;96886.34;5045926;28;20081;-72
2022/08/30 01:20:32;;;;;;;16.52;12.82;;;;;;;21.70;93.76;96924.25;5047693;28;20448;-72
2022/08/30 01:23:05;;;;;;;22.85;13.63;;;;;;;21.57;95.39;96912.13;5045847;28;20053;-72
2022/08/30 01:25:35;;;;;;;30.52;13.55;;;;;;;21.59;95.60;96911.69;5047875;28;20521;-71
2022/08/30 01:28:07;;;;;;;22.70;13.32;;;;;;;21.53;96.06;96921.94;5045968;28;20056;-71
2022/08/30 01:30:37;;;;;;;23.80;15.00;;;;;;;21.12;97.62;96874.72;5047446;28;20625;-71
2022/08/30 01:33:06;;;;;;;18.95;14.13;;;;;;;20.95;97.88;96861.88;5046174;28;20057;-72
2022/08/30 01:36:01;;;;;;;23.20;12.98;;;;;;;21.33;98.52;96919.22;5046136;28;20233;-71
2022/08/30 01:38:33;;;;;;;30.27;14.02;;;;;;;20.58;98.06;96800.53;5031107;28;20616;-71
2022/08/30 01:41:12;;;;;;;18.83;13.07;;;;;;;21.45;97.21;96914.91;5006710;28;20058;-71
2022/08/30 01:43:41;;;;;;;22.45;14.35;;;;;;;21.03;100.00;96914.00;4990326;28;20137;-70
2022/08/30 01:46:10;;;;;;;22.63;13.30;;;;;;;19.98;100.00;96739.34;5006216;28;20050;-71
2022/08/30 01:48:39;;;;;;;22.83;14.38;;;;;;;21.16;99.65;96908.44;5005727;28;20054;-71
2022/08/30 01:51:10;;;;;;;24.42;14.43;;;;;;;21.17;99.40;96910.81;5007629;28;20305;-71
2022/08/30 01:53:39;;;;;;;22.27;13.45;;;;;;;20.93;98.35;96881.22;5005794;28;20057;-72
2022/08/30 01:56:07;;;;;;;27.60;14.27;;;;;;;20.93;96.33;96869.97;5006140;28;20054;-72
2022/08/30 01:58:35;;;;;;;20.80;12.77;;;;;;;21.29;95.75;96912.91;5005478;28;20058;-72
2022/08/30 02:01:08;;;;;;;19.00;14.02;;;;;;;20.76;96.87;96845.88;5007476;28;20054;-72
2022/08/30 02:03:36;;;;;;;;;;;;;;;21.36;96.10;96907.06;5006151;28;20532;-72
2022/08/30 02:06:06;;;;;;;22.27;13.75;;;;;;;21.24;95.86;96910.63;5007490;28;19956;-72
2022/08/30 02:08:33;;;;;;;26.02;13.73;;;;;;;21.28;95.23;96902.88;5005760;28;20050;-71
2022/08/30 02:11:00;;;;;;;22.02;13.18;;;;;;;21.23;95.83;96908.25;5007154;28;20069;-72
2022/08/30 02:13:27;;;;;;;22.80;13.50;;;;;;;21.38;94.88;96915.88;5005717;28;20058;-72
2022/08/30 02:15:54;;;;;;;20.67;13.45;;;;;;;21.25;95.38;96923.47;5005767;28;20057;-72
2022/08/30 02:18:22;;;;;;;19.05;13.48;;;;;;;20.64;95.65;96812.84;5005706;28;20544;-71
2022/08/30 02:20:50;;;;;;;18.83;13.35;;;;;;;20.82;95.69;96846.94;5005334;28;20125;-72
2022/08/30 02:23:17;;;;;;;24.38;13.95;;;;;;;21.13;96.27;96912.16;5006889;28;20051;-72
2022/08/30 02:25:45;;;;;;;22.80;13.05;;;;;;;21.03;94.85;96914.00;5007164;28;20054;-71
2022/08/30 02:28:14;;;;;;;18.13;12.63;;;;;;;21.03;93.50;96914.00;5006916;28;20066;-71
2022/08/30 02:30:44;;;;;;;25.30;13.20;;;;;;;20.21;93.31;96787.00;5021249;28;20046;-72
2022/08/30 02:33:11;;;;;;;21.90;13.50;;;;;;;20.49;94.82;96871.50;5005145;28;20065;-71
2022/08/30 02:35:39;;;;;;;20.00;13.40;;;;;;;19.58;95.07;96749.94;5005299;28;20077;-70
2022/08/30 02:38:06;;;;;;;19.08;14.32;;;;;;;19.81;96.58;96803.19;5008955;28;20065;-72
2022/08/30 02:40:33;;;;;;;22.48;14.55;;;;;;;20.45;96.74;96909.41;5045846;28;20597;-71
2022/08/30 02:43:03;;;;;;;20.48;14.02;;;;;;;20.39;98.27;96917.56;5044735;28;20060;-71
2022/08/30 02:45:30;;;;;;;20.15;14.35;;;;;;;20.37;99.38;96924.88;5046218;28;20056;-70
2022/08/30 02:47:57;;;;;;;24.90;16.02;;;;;;;19.44;100.00;96790.38;5045605;28;20049;-70
2022/08/30 02:50:25;;;;;;;23.45;15.35;;;;;;;19.79;100.00;96847.03;5045942;28;20114;-70
2022/08/30 02:52:51;;;;;;;33.22;16.23;;;;;;;15.43;100.00;96185.00;5044337;28;20546;-70
2022/08/30 02:55:20;;;;;;;19.90;15.98;;;;;;;20.10;100.00;96927.06;5044402;28;20601;-71
2022/08/30 02:57:46;;;;;;;22.88;16.13;;;;;;;19.45;100.00;96844.53;5046039;28;20052;-71
2022/08/30 03:00:16;;;;;;;23.90;17.08;;;;;;;18.94;100.00;96772.94;5044464;28;20060;-72
2022/08/30 03:02:43;;;;;;;24.95;17.30;;;;;;;19.97;100.00;96917.72;5044297;28;20049;-70
2022/08/30 03:05:12;;;;;;;22.27;16.83;;;;;;;19.85;100.00;96884.66;5045920;28;20061;-70
2022/08/30 03:07:40;;;;;;;27.58;16.75;;;;;;;19.17;100.00;96786.13;5041217;28;20542;-70
2022/08/30 03:10:07;;;;;;;26.38;18.05;;;;;;;20.06;100.00;96921.50;5045456;28;20064;-71
2022/08/30 03:12:34;;;;;;;27.05;18.90;;;;;;;20.10;100.00;96924.25;5045931;28;20079;-71
2022/08/30 03:15:01;;;;;;;27.50;17.63;;;;;;;20.15;100.00;96923.78;5045486;28;20061;-72
2022/08/30 03:17:30;;;;;;;27.27;16.92;;;;;;;19.88;100.00;96893.00;5044422;28;20052;-71
2022/08/30 03:19:59;;;;;;;22.27;16.98;;;;;;;19.91;100.00;96913.81;5045655;28;20053;-71
2022/08/30 03:22:25;;;;;;;24.95;16.98;;;;;;;19.71;100.00;96866.09;5044243;28;20076;-70
2022/08/30 03:24:52;;;;;;;24.25;15.80;;;;;;;20.05;100.00;96902.25;5045028;28;20558;-71
2022/08/30 03:27:19;;;;;;;18.10;14.82;;;;;;;20.22;99.65;96934.84;5043962;28;20037;-70
2022/08/30 03:29:45;;;;;;;27.27;14.50;;;;;;;19.84;99.67;96902.75;5043929;28;20067;-70
2022/08/30 03:32:12;;;;;;;24.25;15.02;;;;;;;20.11;99.50;96939.91;5043816;28;20060;-71
2022/08/30 03:34:39;;;;;;;21.10;14.85;;;;;;;19.61;97.80;96860.66;5043588;28;20089;-71
2022/08/30 03:37:06;;;;;;;19.65;14.50;;;;;;;20.16;96.79;96936.59;5043857;28;20056;-70
2022/08/30 03:39:33;;;;;;;21.40;14.32;;;;;;;19.42;96.63;96859.47;5030911;28;20053;-70
2022/08/30 03:42:00;;;;;;;25.20;13.90;;;;;;;20.03;96.69;96938.50;5023492;28;20453;-70
2022/08/30 03:44:28;;;;;;;24.77;14.32;;;;;;;19.60;96.22;96881.56;5025437;28;20057;-70
2022/08/30 03:46:54;;;;;;;41.80;14.98;;;;;;;19.74;96.16;96910.19;5023603;28;20068;-71
2022/08/30 03:49:23;;;;;;;22.08;15.07;;;;;;;19.98;96.34;96939.00;5023550;28;20061;-70
2022/08/30 03:51:50;;;;;;;22.85;15.70;;;;;;;19.92;96.15;96943.53;5023582;28;20076;-71
2022/08/30 03:54:17;;;;;;;23.17;15.20;;;;;;;19.88;96.84;96954.06;5023378;28;20053;-71
2022/08/30 03:56:44;;;;;;;25.77;15.05;;;;;;;19.93;96.04;96951.56;5023287;28;20519;-71
2022/08/30 03:59:11;;;;;;;22.85;14.52;;;;;;;19.65;96.16;96940.88;5023518;28;20372;-73
2022/08/30 04:01:37;;;;;;;18.10;14.10;;;;;;;19.79;95.03;96953.84;5024922;28;20065;-71
2022/08/30 04:04:04;;;;;;;21.83;14.48;;;;;;;19.31;94.37;96876.53;5024925;28;20058;-72
2022/08/30 04:06:32;;;;;;;22.33;14.85;;;;;;;19.97;93.73;96952.25;5024416;28;20061;-71
2022/08/30 04:08:58;;;;;;;19.63;13.55;;;;;;;19.32;93.19;96844.41;5023100;28;20065;-70
2022/08/30 04:11:25;;;;;;;20.15;13.95;;;;;;;20.01;92.59;96940.94;5023125;28;20665;-71
2022/08/30 04:13:54;;;;;;;15.88;13.40;;;;;;;19.58;92.48;96878.41;5024825;28;20072;-72
2022/08/30 04:16:23;;;;;;;17.85;13.50;;;;;;;20.13;91.56;96920.56;5024049;28;20053;-72
2022/08/30 04:18:50;;;;;;;18.27;12.95;;;;;;;20.47;90.97;96958.38;5024723;28;20131;-72
2022/08/30 04:21:18;;;;;;;22.50;13.95;;;;;;;19.72;89.28;96838.75;5024889;28;20055;-72
2022/08/30 04:23:46;;;;;;;19.88;13.88;;;;;;;20.38;88.67;96943.34;5023363;28;20107;-71
2022/08/30 04:26:12;;;;;;;21.00;13.02;;;;;;;20.57;89.56;96973.44;5023261;28;20096;-71
2022/08/30 04:28:39;;;;;;;20.30;13.95;;;;;;;20.59;89.18;96956.91;5024719;28;20065;-73
2022/08/30 04:31:08;;;;;;;20.27;14.10;;;;;;;20.16;88.55;96860.66;5023461;28;20148;-73
2022/08/30 04:33:38;;;;;;;21.63;13.07;;;;;;;20.78;87.75;96964.50;5024491;28;20515;-71
2022/08/30 04:36:07;;;;;;;24.40;13.70;;;;;;;19.78;87.17;96780.78;5023022;28;20061;-73
2022/08/30 04:38:34;;;;;;;19.55;13.18;;;;;;;20.34;86.37;96850.59;5028573;28;20049;-72
2022/08/30 04:41:07;;;;;;;22.67;13.50;;;;;;;21.03;85.82;96950.63;5044870;28;20049;-72
2022/08/30 04:43:33;;;;;;;21.00;13.55;;;;;;;20.04;84.18;96780.56;5044373;28;20146;-73
2022/08/30 04:46:05;;;;;;;21.52;12.88;;;;;;;20.38;84.06;96819.53;5042720;28;20053;-75
2022/08/30 04:48:32;;;;;;;23.50;12.93;;;;;;;21.42;83.72;96956.03;5044375;28;20092;-75
2022/08/30 04:51:01;;;;;;;19.77;12.43;;;;;;;21.51;83.11;96946.94;5042970;28;20065;-75
2022/08/30 04:53:28;;;;;;;23.70;13.45;;;;;;;21.53;82.21;96950.13;5044928;28;20061;-75
2022/08/30 04:55:56;;;;;;;34.38;14.70;;;;;;;21.16;80.27;96864.16;5042388;28;20824;-75
2022/08/30 04:58:23;;;;;;;20.08;13.07;;;;;;;21.55;78.69;96908.94;5042500;28;20587;-74
2022/08/30 05:00:49;;;;;;;23.40;12.02;;;;;;;21.99;79.14;96961.69;5042673;28;20053;-76
2022/08/30 05:03:16;;;;;;;25.35;12.00;;;;;;;22.33;77.53;96959.06;5042305;28;20044;-75
2022/08/30 05:05:50;;;;;;;19.20;11.88;;;;;;;22.02;76.32;96893.09;5044089;28;20052;-75
2022/08/30 05:08:19;;;;;;;;;;;;;;;22.46;77.35;97007.84;5044479;28;20060;-76
2022/08/30 05:10:51;;;;;;;22.60;13.27;;;;;;;22.59;77.33;96948.59;5043869;28;19924;-74
2022/08/30 05:13:20;;;;;;;28.80;12.93;;;;;;;22.06;77.41;96837.34;5042943;28;20432;-74
2022/08/30 05:16:03;;;;;;;23.58;12.93;;;;;;;23.10;75.90;96969.13;5044025;28;20064;-74
2022/08/30 05:18:31;;;;;;;20.67;12.52;;;;;;;22.75;75.36;96894.00;5044095;28;20060;-75
2022/08/30 05:21:15;;;;;;;25.08;12.05;;;;;;;23.17;74.66;96920.84;5043534;28;20053;-75
2022/08/30 05:23:43;;;;;;;15.32;11.50;;;;;;;23.48;74.51;96952.91;5042791;28;20053;-75
2022/08/30 05:26:13;;;;;;;18.20;11.23;;;;;;;23.31;73.12;96920.38;5043580;28;20045;-74
2022/08/30 05:28:41;;;;;;;25.75;12.25;;;;;;;22.65;73.14;96816.09;5043788;28;20057;-75
2022/08/30 05:31:14;;;;;;;18.55;11.55;;;;;;;23.79;72.10;96956.63;5042259;28;20056;-74
2022/08/30 05:33:42;;;;;;;19.80;12.15;;;;;;;23.92;70.22;96954.53;5041746;28;20056;-74
2022/08/30 05:36:11;;;;;;;24.45;13.25;;;;;;;24.06;70.48;96965.34;5041959;28;20535;-74
2022/08/30 05:38:38;;;;;;;21.33;11.77;;;;;;;24.29;69.04;96976.22;5038255;28;20060;-75
2022/08/30 05:41:08;;;;;;;16.27;11.43;;;;;;;24.47;67.44;96956.47;5022174;28;20085;-75
2022/08/30 05:43:37;;;;;;;15.27;11.30;;;;;;;24.20;67.05;96916.69;5023963;28;20099;-76
2022/08/30 05:46:10;;;;;;;17.00;11.15;;;;;;;24.38;66.05;96964.13;5023343;28;20053;-76
2022/08/30 05:48:38;;;;;;;15.73;11.10;;;;;;;24.49;66.48;96914.31;5023896;28;20500;-72
2022/08/30 05:51:27;;;;;;;18.38;10.30;;;;;;;24.50;65.64;96864.13;5025625;28;20049;-74
2022/08/30 05:53:56;;;;;;;16.70;10.27;;;;;;;25.18;64.98;96955.22;5020805;28;20054;-74
2022/08/30 05:56:35;;;;;;;13.57;10.48;;;;;;;24.65;65.08;96860.25;5021669;28;20061;-67
2022/08/30 05:59:05;;;;;;;18.85;11.20;;;;;;;25.25;65.70;96943.59;5015456;28;20066;-73
2022/08/30 06:01:35;;;;;;;19.10;11.35;;;;;;;25.10;66.27;96953.94;5021608;28;20081;-70
2022/08/30 06:04:03;;;;;;;15.88;10.80;;;;;;;24.47;66.25;96837.53;5042805;28;20137;-68
2022/08/30 06:06:33;;;;;;;21.38;11.65;;;;;;;25.22;66.65;96955.06;5046692;28;20049;-67
2022/08/30 06:09:00;;;;;;;20.00;12.23;;;;;;;24.80;66.28;96886.75;5046728;28;20522;-67
2022/08/30 06:11:31;;;;;;;17.42;11.00;;;;;;;25.02;66.07;96924.28;5046364;28;20107;-70
2022/08/30 06:13:58;;;;;;;22.83;11.82;;;;;;;25.29;66.46;96943.44;5046053;28;20499;-66
2022/08/30 06:16:26;;;;;;;22.83;12.50;;;;;;;24.48;67.13;96819.28;5041369;28;20057;-63
2022/08/30 06:18:54;;;;;;;19.55;13.57;;;;;;;24.84;69.08;96895.91;5046149;28;20465;-75
2022/08/30 06:21:23;;;;;;;17.15;11.45;;;;;;;25.26;69.21;96950.81;5046240;28;20053;-63
2022/08/30 06:23:50;;;;;;;18.10;12.23;;;;;;;25.39;67.76;96952.78;5039583;28;20045;-64
2022/08/30 06:26:17;;;;;;;27.02;13.38;;;;;;;25.41;69.67;96951.03;5006094;28;20061;-66
2022/08/30 06:28:44;;;;;;;18.33;14.10;;;;;;;25.39;72.18;96958.47;5005953;28;20050;-69
2022/08/30 06:31:13;;;;;;;22.15;12.63;;;;;;;25.42;72.81;96951.84;5035857;28;20068;-66
2022/08/30 06:33:40;;;;;;;19.25;12.75;;;;;;;25.56;72.80;96951.22;5004524;28;20483;-72
2022/08/30 06:36:16;;;;;;;15.98;11.98;;;;;;;25.45;71.38;96925.38;5019923;28;20434;-72
2022/08/30 06:38:44;;;;;;;18.77;11.63;;;;;;;24.31;69.94;96761.31;5025963;28;20459;-73
2022/08/30 06:41:17;;;;;;;15.98;11.93;;;;;;;25.44;70.33;96944.44;5025862;28;20053;-65
2022/08/30 06:43:45;;;;;;;20.27;11.27;;;;;;;25.43;71.33;96964.75;5026181;28;20511;-67
2022/08/30 06:46:35;;;;;;;20.60;12.18;;;;;;;25.54;72.12;96962.25;5026348;28;20053;-68
2022/08/30 06:49:04;;;;;;;13.95;11.45;;;;;;;25.03;71.44;96891.88;5025924;28;20060;-69
2022/08/30 06:51:35;;;;;;;22.55;12.02;;;;;;;25.07;71.10;96892.50;5016870;28;20050;-70
2022/08/30 06:54:05;;;;;;;14.13;10.70;;;;;;;25.25;69.44;96909.56;5040311;28;20535;-67
2022/08/30 06:56:36;;;;;;;16.80;10.23;;;;;;;24.52;66.98;96766.09;5023785;28;20111;-69
2022/08/30 06:59:04;;;;;;;17.55;10.00;;;;;;;26.20;65.42;96961.31;5024284;28;20053;-71
2022/08/30 07:01:31;;;;;;;18.63;11.32;;;;;;;26.36;65.52;96958.13;5024379;28;20057;-68
2022/08/30 07:03:59;;;;;;;16.85;11.43;;;;;;;26.51;64.93;96965.50;5025054;28;20158;-68
2022/08/30 07:06:28;;;;;;;15.55;10.93;;;;;;;26.62;62.79;96925.22;5024753;28;20444;-63
2022/08/30 07:08:55;;;;;;;16.23;10.15;;;;;;;27.05;61.96;97010.06;5024233;28;20053;-64
2022/08/30 07:11:31;;;;;;;20.42;10.48;;;;;;;27.04;61.76;96945.94;5023259;28;20049;-67
2022/08/30 07:13:59;;;;;;;19.20;10.38;;;;;;;26.76;60.03;96849.88;5020882;28;20050;-73
2022/08/30 07:16:26;;;;;;;18.42;10.13;;;;;;;27.62;59.94;96954.75;5020230;28;20065;-63
2022/08/30 07:18:54;;;;;;;14.77;9.98;;;;;;;27.84;58.45;96940.97;5003635;28;20050;-66
2022/08/30 07:21:38;;;;;;;14.55;10.45;;;;;;;28.26;57.99;96948.53;5016233;28;20152;-67
2022/08/30 07:24:06;;;;;;;11.63;10.18;;;;;;;28.66;56.09;96960.19;5005635;28;20054;-69
2022/08/30 07:26:40;;;;;;;14.80;10.35;;;;;;;28.69;55.54;96956.34;5019441;28;20506;-63
2022/08/30 07:29:08;;;;;;;13.17;9.40;;;;;;;29.05;54.12;96953.06;5024128;28;20420;-66
2022/08/30 07:31:36;;;;;;;13.98;8.82;;;;;;;27.69;54.02;96757.97;5023608;28;20618;-68
2022/08/30 07:34:05;;;;;;;13.65;9.57;;;;;;;27.68;54.50;96767.78;5017958;28;20049;-74
2022/08/30 07:36:33;;;;;;;16.00;9.45;;;;;;;28.97;54.42;96929.06;5005585;28;20049;-70
2022/08/30 07:39:00;;;;;;;17.35;9.40;;;;;;;29.27;52.07;96956.28;5013625;28;20057;-66
2022/08/30 07:41:35;;;;;;;13.38;9.40;;;;;;;29.07;51.38;96950.53;5023017;28;20049;-63
2022/08/30 07:44:02;;;;;;;11.25;8.05;;;;;;;28.25;50.87;96907.09;5021499;28;20053;-69
2022/08/30 07:46:29;;;;;;;12.05;8.40;;;;;;;28.98;49.54;96931.44;5005150;28;20529;-69
2022/08/30 07:48:58;;;;;;;17.55;8.52;;;;;;;29.36;48.04;96954.09;5013282;28;20053;-68
2022/08/30 07:51:27;;;;;;;15.90;8.27;;;;;;;29.42;48.11;96925.59;5023233;28;20606;-64
2022/08/30 07:53:55;;;;;;;14.93;8.40;;;;;;;29.58;46.45;96933.59;5005106;28;20137;-65
2022/08/30 07:56:23;;;;;;;15.43;7.68;;;;;;;29.26;45.94;96854.84;5003082;28;20512;-65
2022/08/30 07:58:50;;;;;;;10.25;7.32;;;;;;;29.53;44.88;96885.78;5004936;28;20053;-77
2022/08/30 08:01:18;;;;;;;12.13;8.73;;;;;;;30.15;45.13;96959.53;5004368;28;20432;-67
2022/08/30 08:03:46;;;;;;;14.38;7.30;;;;;;;28.56;44.47;96722.91;5004513;28;20062;-69
2022/08/30 08:06:15;;;;;;;10.50;7.82;;;;;;;29.57;45.33;96949.19;5004176;28;20046;-65
2022/08/30 08:08:42;;;;;;;15.32;8.85;;;;;;;30.02;45.09;96965.63;5004502;28;20060;-68
2022/08/30 08:11:11;;;;;;;11.20;8.65;;;;;;;28.59;45.29;96820.88;5004371;28;20053;-65
2022/08/30 08:13:43;;;;;;;13.23;8.18;;;;;;;30.00;44.58;96962.50;5023829;28;20100;-63
2022/08/30 08:16:22;;;;;;;16.13;8.85;;;;;;;30.29;43.57;96958.66;5022865;28;20053;-64
2022/08/30 08:18:50;;;;;;;12.70;7.05;;;;;;;30.20;43.01;96922.44;5022193;28;20076;-65
2022/08/30 08:21:17;;;;;;;12.80;9.05;;;;;;;30.59;43.67;96942.84;5021862;28;20084;-69
2022/08/30 08:23:44;;;;;;;13.85;8.63;;;;;;;30.95;43.47;96953.63;5021978;28;20052;-63
2022/08/30 08:26:10;;;;;;;11.93;7.88;;;;;;;30.53;42.00;96847.66;5010623;28;20069;-72
2022/08/30 08:28:37;;;;;;;13.70;9.20;;;;;;;31.13;42.37;96920.94;5006463;28;20061;-67
2022/08/30 08:31:13;;;;;;;11.43;7.95;;;;;;;30.51;42.72;96962.53;5020602;28;20086;-70
2022/08/30 08:33:40;;;;;;;13.45;8.00;;;;;;;29.75;42.32;96788.97;5005041;28;20049;-69
2022/08/30 08:36:07;;;;;;;18.23;10.15;;;;;;;31.02;42.19;96958.88;5012677;28;20053;-72
2022/08/30 08:38:35;;;;;;;17.88;8.68;;;;;;;30.42;42.53;96894.09;5013509;28;20092;-63
2022/08/30 08:41:40;;;;;;;15.00;8.38;;;;;;;30.59;41.66;96960.81;5015158;28;20057;-70
2022/08/30 08:44:44;;;;;;;13.05;8.20;;;;;;;30.82;41.68;96956.91;5018622;28;20056;-67
2022/08/30 08:47:33;;;;;;;17.52;7.93;;;;;;;30.02;40.54;96879.88;5008871;28;20665;-71
2022/08/30 08:50:03;;;;;;;12.93;8.73;;;;;;;30.72;40.74;96952.63;5020691;28;20064;-67
2022/08/30 08:55:57;;;;;;;11.75;7.80;;;;;;;30.72;40.45;96963.25;5010444;28;20053;-67
2022/08/30 08:58:40;;;;;;;14.30;8.82;;;;;;;30.37;40.08;96914.84;5009078;28;20045;-71
2022/08/30 09:01:09;;;;;;;13.13;7.68;;;;;;;30.69;40.06;96929.94;4991929;28;20061;-69
2022/08/30 09:03:38;;;;;;;10.05;7.05;;;;;;;29.17;40.52;96692.31;5002023;28;20050;-69
2022/08/30 09:06:23;;;;;;;14.85;8.32;;;;;;;31.10;40.06;96962.03;5002377;28;20053;-68
2022/08/30 09:08:50;;;;;;;12.20;9.13;;;;;;;30.69;40.17;96953.63;5003804;28;20045;-68
2022/08/30 09:11:25;;;;;;;12.15;8.75;;;;;;;30.90;40.28;96952.25;5003762;28;20056;-65
2022/08/30 09:13:53;;;;;;;14.82;8.35;;;;;;;31.01;39.39;96928.69;5001859;28;20085;-71
2022/08/30 09:16:55;;;;;;;9.43;7.45;;;;;;;30.99;40.23;96959.88;5014230;28;20086;-65
2022/08/30 09:19:38;;;;;;;12.75;8.38;;;;;;;30.71;40.54;96870.94;5003684;28;20073;-63
2022/08/30 09:22:21;;;;;;;9.75;7.47;;;;;;;30.65;40.94;96953.06;5003888;28;20062;-64
2022/08/30 09:24:52;;;;;;;9.65;7.47;;;;;;;30.72;39.88;96909.72;5013772;28;20496;-65
2022/08/30 09:27:20;;;;;;;13.25;8.35;;;;;;;30.77;40.15;96943.34;5006924;28;20630;-62
2022/08/30 09:30:01;;;;;;;15.40;7.90;;;;;;;29.95;40.33;96780.34;5008944;28;20062;-63
2022/08/30 09:32:37;;;;;;;11.70;8.48;;;;;;;30.88;40.22;96925.47;5006020;28;20065;-67
2022/08/30 09:35:09;;;;;;;11.02;8.10;;;;;;;30.88;40.19;96903.38;5007072;28;20053;-63
2022/08/30 09:37:38;;;;;;;12.30;8.65;;;;;;;30.16;39.74;96733.25;5012434;28;20050;-69
2022/08/30 09:40:12;;;;;;;17.85;9.38;;;;;;;31.34;39.26;96893.78;5009063;28;20455;-67
2022/08/30 09:42:39;;;;;;;14.55;8.00;;;;;;;31.63;39.15;96910.63;5006648;28;20086;-68
2022/08/30 09:45:19;;;;;;;13.25;8.35;;;;;;;31.60;38.93;96946.03;5007522;28;20264;-67
2022/08/30 09:47:46;;;;;;;14.40;8.57;;;;;;;31.75;38.95;96938.00;5007492;28;20046;-66
2022/08/30 09:50:19;;;;;;;20.35;9.55;;;;;;;31.74;38.77;96910.66;5007505;28;20062;-67
2022/08/30 09:52:59;;;;;;;14.32;7.88;;;;;;;32.12;39.25;96924.38;5019397;28;20127;-67
2022/08/30 09:55:37;;;;;;;17.95;8.82;;;;;;;32.40;39.03;96927.34;5026515;28;20085;-65
2022/08/30 09:58:06;;;;;;;13.10;7.90;;;;;;;32.40;38.21;96930.19;5026970;28;20067;-65
2022/08/30 10:00:44;;;;;;;12.55;8.30;;;;;;;31.98;37.89;96825.06;5026698;28;20056;-66
2022/08/30 10:03:24;;;;;;;14.13;8.43;;;;;;;32.81;37.43;96922.69;5026598;28;20553;-64
2022/08/30 10:06:14;;;;;;;14.63;8.50;;;;;;;32.19;38.31;96855.06;5025572;28;20053;-66
2022/08/30 10:09:01;;;;;;;15.77;8.45;;;;;;;32.90;37.35;96919.56;5025297;28;20123;-67
2022/08/30 10:11:35;;;;;;;12.60;8.32;;;;;;;32.67;37.85;96918.78;5026974;28;20053;-66
2022/08/30 10:14:26;;;;;;;13.13;8.00;;;;;;;32.77;37.34;96908.56;5026617;28;20060;-66
2022/08/30 10:17:33;;;;;;;12.20;8.30;;;;;;;32.70;38.16;96905.47;5026178;28;20053;-66
2022/08/30 10:20:29;;;;;;;15.27;9.18;;;;;;;32.58;38.74;96898.91;4968417;28;20061;-66
2022/08/30 10:23:03;;;;;;;;;;;;;;;32.67;38.64;96890.06;4985044;28;20057;-68
2022/08/30 10:25:37;;;;;;;10.90;7.78;;;;;;;32.73;38.13;96890.06;5015932;28;19929;-66
2022/08/30 10:28:09;;;;;;;9.45;7.68;;;;;;;31.81;38.69;96904.41;5026644;28;20491;-65
2022/08/30 10:30:39;;;;;;;15.02;8.40;;;;;;;31.94;38.50;96896.16;5026855;28;20049;-65
2022/08/30 10:33:17;;;;;;;14.63;8.90;;;;;;;31.89;38.71;96894.84;5024810;28;20045;-62
2022/08/30 10:35:49;;;;;;;22.15;11.60;;;;;;;31.35;38.88;96832.34;5025495;28;20057;-62
2022/08/30 10:38:25;;;;;;;11.90;8.73;;;;;;;31.97;38.00;96912.34;5026017;28;20064;-65
2022/08/30 10:41:14;;;;;;;13.98;8.18;;;;;;;31.39;37.73;96789.97;5037627;28;20131;-64
2022/08/30 10:43:54;;;;;;;15.65;7.82;;;;;;;32.02;38.38;96845.66;5046130;28;20059;-65
2022/08/30 10:46:46;;;;;;;15.55;8.73;;;;;;;31.86;37.92;96834.91;5046367;28;20064;-64
2022/08/30 10:49:20;;;;;;;14.82;9.20;;;;;;;32.40;38.04;96919.50;5045308;28;20067;-65
2022/08/30 10:51:53;;;;;;;11.88;7.53;;;;;;;32.51;37.92;96905.19;5041672;28;20041;-65
2022/08/30 10:54:38;;;;;;;14.63;7.93;;;;;;;31.67;38.78;96923.41;5024272;28;20409;-64
2022/08/30 10:57:05;;;;;;;10.10;7.60;;;;;;;31.99;37.76;96912.59;5025253;28;20057;-65
2022/08/30 10:59:35;;;;;;;17.92;8.50;;;;;;;31.55;37.61;96898.06;5025757;28;20050;-65
2022/08/30 11:02:27;;;;;;;15.50;8.30;;;;;;;31.65;38.50;96902.28;5024540;28;20148;-65
2022/08/30 11:04:56;;;;;;;16.58;8.02;;;;;;;31.44;39.96;96898.03;5025590;28;20436;-64
2022/08/30 11:07:35;;;;;;;16.70;7.55;;;;;;;31.73;40.52;96904.13;5025262;28;20099;-67
2022/08/30 11:10:29;;;;;;;14.95;7.68;;;;;;;31.99;39.08;96892.53;5024226;28;20053;-66
2022/08/30 11:13:02;;;;;;;15.32;8.95;;;;;;;31.64;40.56;96895.78;5025332;28;20049;-66
2022/08/30 11:15:34;;;;;;;16.05;10.10;;;;;;;32.35;39.65;96888.72;5025527;28;20092;-67
2022/08/30 11:18:08;;;;;;;16.45;11.13;;;;;;;32.88;38.01;96882.78;5025453;28;20053;-66
2022/08/30 11:20:42;;;;;;;9.80;7.95;;;;;;;31.48;38.96;96887.09;5025873;28;20059;-65
2022/08/30 11:23:28;;;;;;;16.08;8.68;;;;;;;32.54;37.79;96884.06;5023309;28;20066;-66
2022/08/30 11:26:04;;;;;;;13.82;8.15;;;;;;;32.43;37.45;96886.94;5022923;28;20056;-66
2022/08/30 11:28:33;;;;;;;18.15;8.55;;;;;;;33.00;37.19;96878.59;5025007;28;20515;-67
2022/08/30 11:31:07;;;;;;;17.08;8.45;;;;;;;32.07;36.64;96778.94;5018544;28;20065;-62
2022/08/30 11:33:47;;;;;;;14.45;7.53;;;;;;;32.52;37.52;96865.81;5021681;28;20052;-66
2022/08/30 11:36:59;;;;;;;16.73;7.93;;;;;;;31.13;38.40;96827.28;5008660;28;20065;-68
2022/08/30 11:39:48;;;;;;;12.52;8.75;;;;;;;31.81;37.87;96858.56;4997755;28;20439;-63
2022/08/30 11:42:38;;;;;;;10.45;7.55;;;;;;;31.54;38.35;96845.72;5015583;28;20065;-63